sensor_id;sensor_type;location;lat;lon;timestamp;temperature;humidity
1129;DHT22;553;51.038;7.216;2023-02-11T00:00:14;6.40;99.90
1129;DHT22;553;51.038;7.216;2023-02-11T00:02:41;6.20;99.90
1129;DHT22;553;51.038;7.216;2023-02-11T00:05:07;6.20;99.90
1129;DHT22;553;51.038;7.216;2023-02-11T00:07:35;6.20;99.90
1129;DHT22;553;51.038;7.216;2023-02-11T00:10:03;6.00;99.90
1129;DHT22;553;51.038;7.216;2023-02-11T00:12:30;6.00;99.90
1129;DHT22;553;51.038;7.216;2023-02-11T00:14:57;5.90;99.90
1129;DHT22;553;51.038;7.216;2023-02-11T00:17:23;5.80;99.90
1129;DHT22;553;51.038;7.216;2023-02-11T00:19:51;5.80;99.90
1129;DHT22;553;51.038;7.216;2023-02-11T00:22:18;5.80;99.90
1129;DHT22;553;51.038;7.216;2023-02-11T00:24:45;5.70;99.90
1129;DHT22;553;51.038;7.216;2023-02-11T00:27:11;5.70;99.90
1129;DHT22;553;51.038;7.216;2023-02-11T00:29:38;5.70;99.90
1129;DHT22;553;51.038;7.216;2023-02-11T00:32:06;5.70;99.90
1129;DHT22;553;51.038;7.216;2023-02-11T00:34:35;5.60;99.90
1129;DHT22;553;51.038;7.216;2023-02-11T00:37:02;5.60;99.90
1129;DHT22;553;51.038;7.216;2023-02-11T00:39:30;5.60;99.90
1129;DHT22;553;51.038;7.216;2023-02-11T00:41:57;5.50;99.90
1129;DHT22;553;51.038;7.216;2023-02-11T00:44:24;5.60;99.90
1129;DHT22;553;51.038;7.216;2023-02-11T00:46:51;5.50;99.90
1129;DHT22;553;51.038;7.216;2023-02-11T00:49:18;5.50;99.90
1129;DHT22;553;51.038;7.216;2023-02-11T00:51:47;5.50;99.90
1129;DHT22;553;51.038;7.216;2023-02-11T00:54:13;5.50;99.90
1129;DHT22;553;51.038;7.216;2023-02-11T00:56:40;5.50;99.90
1129;DHT22;553;51.038;7.216;2023-02-11T00:59:07;5.50;99.90
1129;DHT22;553;51.038;7.216;2023-02-11T01:01:34;5.50;99.90
1129;DHT22;553;51.038;7.216;2023-02-11T01:04:01;5.60;99.90
1129;DHT22;553;51.038;7.216;2023-02-11T01:06:28;5.60;99.90
1129;DHT22;553;51.038;7.216;2023-02-11T01:08:54;5.60;99.90
1129;DHT22;553;51.038;7.216;2023-02-11T01:11:21;5.70;99.90
1129;DHT22;553;51.038;7.216;2023-02-11T01:13:49;5.60;99.90
1129;DHT22;553;51.038;7.216;2023-02-11T01:16:17;5.70;99.90
1129;DHT22;553;51.038;7.216;2023-02-11T01:18:45;5.70;99.90
1129;DHT22;553;51.038;7.216;2023-02-11T01:21:12;5.80;99.90
1129;DHT22;553;51.038;7.216;2023-02-11T01:23:39;5.80;99.90
1129;DHT22;553;51.038;7.216;2023-02-11T01:26:05;5.80;99.90
1129;DHT22;553;51.038;7.216;2023-02-11T01:28:32;5.90;99.90
1129;DHT22;553;51.038;7.216;2023-02-11T01:31:00;5.90;99.90
1129;DHT22;553;51.038;7.216;2023-02-11T01:33:27;5.90;99.90
1129;DHT22;553;51.038;7.216;2023-02-11T01:35:54;5.90;99.90
1129;DHT22;553;51.038;7.216;2023-02-11T01:38:23;5.90;99.90
1129;DHT22;553;51.038;7.216;2023-02-11T01:40:55;6.00;99.90
1129;DHT22;553;51.038;7.216;2023-02-11T01:43:23;5.90;99.90
1129;DHT22;553;51.038;7.216;2023-02-11T01:48:31;5.90;99.90
1129;DHT22;553;51.038;7.216;2023-02-11T01:51:17;5.90;99.90
1129;DHT22;553;51.038;7.216;2023-02-11T01:53:46;5.90;99.90
1129;DHT22;553;51.038;7.216;2023-02-11T01:56:36;5.90;99.90
1129;DHT22;553;51.038;7.216;2023-02-11T01:59:31;5.90;99.90
1129;DHT22;553;51.038;7.216;2023-02-11T02:02:04;5.90;99.90
1129;DHT22;553;51.038;7.216;2023-02-11T02:04:37;5.80;99.90
1129;DHT22;553;51.038;7.216;2023-02-11T02:07:13;5.80;99.90
1129;DHT22;553;51.038;7.216;2023-02-11T02:09:47;5.80;99.90
1129;DHT22;553;51.038;7.216;2023-02-11T02:12:15;5.90;99.90
1129;DHT22;553;51.038;7.216;2023-02-11T02:14:42;5.90;99.90
1129;DHT22;553;51.038;7.216;2023-02-11T02:17:37;5.90;99.90
1129;DHT22;553;51.038;7.216;2023-02-11T02:20:30;6.00;99.90
1129;DHT22;553;51.038;7.216;2023-02-11T02:23:18;6.00;99.90
1129;DHT22;553;51.038;7.216;2023-02-11T02:26:27;6.00;99.90
1129;DHT22;553;51.038;7.216;2023-02-11T02:40:35;5.90;99.90
1129;DHT22;553;51.038;7.216;2023-02-11T02:43:06;6.00;99.90
1129;DHT22;553;51.038;7.216;2023-02-11T02:45:34;6.00;99.90
1129;DHT22;553;51.038;7.216;2023-02-11T02:48:01;6.00;99.90
1129;DHT22;553;51.038;7.216;2023-02-11T02:50:31;6.00;99.90
1129;DHT22;553;51.038;7.216;2023-02-11T02:53:09;6.00;99.90
1129;DHT22;553;51.038;7.216;2023-02-11T02:56:31;6.00;99.90
1129;DHT22;553;51.038;7.216;2023-02-11T02:58:53;6.00;99.90
1129;DHT22;553;51.038;7.216;2023-02-11T03:07:02;6.10;99.90
1129;DHT22;553;51.038;7.216;2023-02-11T03:09:40;6.10;99.90
1129;DHT22;553;51.038;7.216;2023-02-11T03:12:08;6.00;99.90
1129;DHT22;553;51.038;7.216;2023-02-11T03:14:36;6.00;99.90
1129;DHT22;553;51.038;7.216;2023-02-11T03:17:05;6.00;99.90
1129;DHT22;553;51.038;7.216;2023-02-11T03:19:39;6.00;99.90
1129;DHT22;553;51.038;7.216;2023-02-11T03:22:21;5.90;99.90
1129;DHT22;553;51.038;7.216;2023-02-11T03:24:48;5.80;99.90
1129;DHT22;553;51.038;7.216;2023-02-11T03:27:20;5.90;99.90
1129;DHT22;553;51.038;7.216;2023-02-11T03:30:00;5.90;99.90
1129;DHT22;553;51.038;7.216;2023-02-11T03:32:51;6.00;99.90
1129;DHT22;553;51.038;7.216;2023-02-11T03:37:54;5.90;99.90
1129;DHT22;553;51.038;7.216;2023-02-11T03:40:28;5.90;99.90
1129;DHT22;553;51.038;7.216;2023-02-11T03:43:08;5.90;99.90
1129;DHT22;553;51.038;7.216;2023-02-11T03:45:36;5.90;99.90
1129;DHT22;553;51.038;7.216;2023-02-11T03:48:10;5.80;99.90
1129;DHT22;553;51.038;7.216;2023-02-11T03:50:39;5.90;99.90
1129;DHT22;553;51.038;7.216;2023-02-11T03:53:07;5.80;99.90
1129;DHT22;553;51.038;7.216;2023-02-11T03:55:37;5.80;99.90
1129;DHT22;553;51.038;7.216;2023-02-11T03:58:05;5.90;99.90
1129;DHT22;553;51.038;7.216;2023-02-11T04:00:34;5.80;99.90
1129;DHT22;553;51.038;7.216;2023-02-11T04:03:02;5.90;99.90
1129;DHT22;553;51.038;7.216;2023-02-11T04:05:30;5.90;99.90
1129;DHT22;553;51.038;7.216;2023-02-11T04:07:57;5.80;99.90
1129;DHT22;553;51.038;7.216;2023-02-11T04:10:24;5.90;99.90
1129;DHT22;553;51.038;7.216;2023-02-11T04:12:51;5.90;99.90
1129;DHT22;553;51.038;7.216;2023-02-11T04:15:18;5.90;99.90
1129;DHT22;553;51.038;7.216;2023-02-11T04:17:45;6.00;99.90
1129;DHT22;553;51.038;7.216;2023-02-11T04:20:12;6.00;99.90
1129;DHT22;553;51.038;7.216;2023-02-11T04:22:39;6.00;99.90
1129;DHT22;553;51.038;7.216;2023-02-11T04:25:06;6.00;99.90
1129;DHT22;553;51.038;7.216;2023-02-11T04:27:34;6.00;99.90
1129;DHT22;553;51.038;7.216;2023-02-11T04:30:01;5.90;99.90
1129;DHT22;553;51.038;7.216;2023-02-11T04:32:27;5.90;99.90
1129;DHT22;553;51.038;7.216;2023-02-11T04:34:54;5.80;99.90
1129;DHT22;553;51.038;7.216;2023-02-11T04:37:21;5.70;99.90
1129;DHT22;553;51.038;7.216;2023-02-11T04:39:47;5.80;99.90
1129;DHT22;553;51.038;7.216;2023-02-11T04:42:14;5.90;99.90
1129;DHT22;553;51.038;7.216;2023-02-11T04:44:41;5.90;99.90
1129;DHT22;553;51.038;7.216;2023-02-11T04:47:08;5.90;99.90
1129;DHT22;553;51.038;7.216;2023-02-11T04:49:34;5.90;99.90
1129;DHT22;553;51.038;7.216;2023-02-11T04:52:01;5.90;99.90
1129;DHT22;553;51.038;7.216;2023-02-11T04:54:28;5.80;99.90
1129;DHT22;553;51.038;7.216;2023-02-11T04:56:54;5.70;99.90
1129;DHT22;553;51.038;7.216;2023-02-11T04:59:21;5.70;99.90
1129;DHT22;553;51.038;7.216;2023-02-11T05:01:48;5.70;99.90
1129;DHT22;553;51.038;7.216;2023-02-11T05:04:15;5.60;99.90
1129;DHT22;553;51.038;7.216;2023-02-11T05:06:42;5.60;99.90
1129;DHT22;553;51.038;7.216;2023-02-11T05:09:10;5.60;99.90
1129;DHT22;553;51.038;7.216;2023-02-11T05:11:37;5.50;99.90
1129;DHT22;553;51.038;7.216;2023-02-11T05:14:07;5.40;99.90
1129;DHT22;553;51.038;7.216;2023-02-11T05:16:34;5.40;99.90
1129;DHT22;553;51.038;7.216;2023-02-11T05:19:01;5.50;99.90
1129;DHT22;553;51.038;7.216;2023-02-11T05:21:28;5.50;99.90
1129;DHT22;553;51.038;7.216;2023-02-11T05:23:54;5.50;99.90
1129;DHT22;553;51.038;7.216;2023-02-11T05:26:21;5.40;99.90
1129;DHT22;553;51.038;7.216;2023-02-11T05:28:48;5.30;99.90
1129;DHT22;553;51.038;7.216;2023-02-11T05:31:14;5.30;99.90
1129;DHT22;553;51.038;7.216;2023-02-11T05:33:42;5.40;99.90
1129;DHT22;553;51.038;7.216;2023-02-11T05:36:10;5.30;99.90
1129;DHT22;553;51.038;7.216;2023-02-11T05:38:37;5.30;99.90
1129;DHT22;553;51.038;7.216;2023-02-11T05:41:05;5.20;99.90
1129;DHT22;553;51.038;7.216;2023-02-11T05:43:32;5.20;99.90
1129;DHT22;553;51.038;7.216;2023-02-11T05:46:01;5.30;99.90
1129;DHT22;553;51.038;7.216;2023-02-11T05:48:29;5.30;99.90
1129;DHT22;553;51.038;7.216;2023-02-11T05:50:56;5.40;99.90
1129;DHT22;553;51.038;7.216;2023-02-11T05:53:23;5.40;99.90
1129;DHT22;553;51.038;7.216;2023-02-11T05:55:49;5.40;99.90
1129;DHT22;553;51.038;7.216;2023-02-11T05:58:17;5.50;99.90
1129;DHT22;553;51.038;7.216;2023-02-11T06:00:43;5.40;99.90
1129;DHT22;553;51.038;7.216;2023-02-11T06:03:10;5.40;99.90
1129;DHT22;553;51.038;7.216;2023-02-11T06:05:38;5.30;99.90
1129;DHT22;553;51.038;7.216;2023-02-11T06:08:04;5.40;99.90
1129;DHT22;553;51.038;7.216;2023-02-11T06:10:31;5.30;99.90
1129;DHT22;553;51.038;7.216;2023-02-11T06:12:58;5.40;99.90
1129;DHT22;553;51.038;7.216;2023-02-11T06:15:24;5.40;99.90
1129;DHT22;553;51.038;7.216;2023-02-11T06:17:51;5.40;99.90
1129;DHT22;553;51.038;7.216;2023-02-11T06:20:18;5.40;99.90
1129;DHT22;553;51.038;7.216;2023-02-11T06:22:45;5.40;99.90
1129;DHT22;553;51.038;7.216;2023-02-11T06:25:12;5.50;99.90
1129;DHT22;553;51.038;7.216;2023-02-11T06:27:39;5.50;99.90
1129;DHT22;553;51.038;7.216;2023-02-11T06:30:07;5.50;99.90
1129;DHT22;553;51.038;7.216;2023-02-11T06:32:34;5.50;99.90
1129;DHT22;553;51.038;7.216;2023-02-11T06:35:10;5.60;99.90
1129;DHT22;553;51.038;7.216;2023-02-11T06:37:39;5.50;99.90
1129;DHT22;553;51.038;7.216;2023-02-11T06:40:06;5.60;99.90
1129;DHT22;553;51.038;7.216;2023-02-11T06:42:32;5.50;99.90
1129;DHT22;553;51.038;7.216;2023-02-11T06:45:02;5.50;99.90
1129;DHT22;553;51.038;7.216;2023-02-11T06:47:31;5.60;99.90
1129;DHT22;553;51.038;7.216;2023-02-11T06:49:58;5.60;99.90
1129;DHT22;553;51.038;7.216;2023-02-11T06:52:24;5.60;99.90
1129;DHT22;553;51.038;7.216;2023-02-11T06:54:51;5.60;99.90
1129;DHT22;553;51.038;7.216;2023-02-11T06:57:18;5.60;99.90
1129;DHT22;553;51.038;7.216;2023-02-11T06:59:44;5.60;99.90
1129;DHT22;553;51.038;7.216;2023-02-11T07:02:11;5.60;99.90
1129;DHT22;553;51.038;7.216;2023-02-11T07:04:39;5.60;99.90
1129;DHT22;553;51.038;7.216;2023-02-11T07:07:05;5.70;99.90
1129;DHT22;553;51.038;7.216;2023-02-11T07:09:32;5.70;99.90
1129;DHT22;553;51.038;7.216;2023-02-11T07:11:59;5.70;99.90
1129;DHT22;553;51.038;7.216;2023-02-11T07:14:25;5.70;99.90
1129;DHT22;553;51.038;7.216;2023-02-11T07:16:52;5.70;99.90
1129;DHT22;553;51.038;7.216;2023-02-11T07:19:19;5.70;99.90
1129;DHT22;553;51.038;7.216;2023-02-11T07:21:46;5.70;99.90
1129;DHT22;553;51.038;7.216;2023-02-11T07:24:14;5.70;99.90
1129;DHT22;553;51.038;7.216;2023-02-11T07:26:40;5.70;99.90
1129;DHT22;553;51.038;7.216;2023-02-11T07:29:07;5.80;99.90
1129;DHT22;553;51.038;7.216;2023-02-11T07:31:34;5.80;99.90
1129;DHT22;553;51.038;7.216;2023-02-11T07:34:01;5.80;99.90
1129;DHT22;553;51.038;7.216;2023-02-11T07:36:29;5.80;99.90
1129;DHT22;553;51.038;7.216;2023-02-11T07:38:57;5.70;99.90
1129;DHT22;553;51.038;7.216;2023-02-11T07:41:25;5.70;99.90
1129;DHT22;553;51.038;7.216;2023-02-11T07:43:53;5.80;99.90
1129;DHT22;553;51.038;7.216;2023-02-11T07:46:24;5.80;99.90
1129;DHT22;553;51.038;7.216;2023-02-11T07:48:51;5.90;99.90
1129;DHT22;553;51.038;7.216;2023-02-11T07:53:46;5.90;99.90
1129;DHT22;553;51.038;7.216;2023-02-11T07:56:15;6.00;99.90
1129;DHT22;553;51.038;7.216;2023-02-11T07:58:42;6.00;99.90
1129;DHT22;553;51.038;7.216;2023-02-11T08:01:12;6.00;99.90
1129;DHT22;553;51.038;7.216;2023-02-11T08:03:39;6.00;99.90
1129;DHT22;553;51.038;7.216;2023-02-11T08:06:13;6.00;99.90
1129;DHT22;553;51.038;7.216;2023-02-11T08:08:40;5.90;99.90
1129;DHT22;553;51.038;7.216;2023-02-11T08:11:19;5.90;99.90
1129;DHT22;553;51.038;7.216;2023-02-11T08:13:46;5.90;99.90
1129;DHT22;553;51.038;7.216;2023-02-11T08:16:34;5.90;99.90
1129;DHT22;553;51.038;7.216;2023-02-11T08:19:03;5.80;99.90
1129;DHT22;553;51.038;7.216;2023-02-11T08:21:30;5.90;99.90
1129;DHT22;553;51.038;7.216;2023-02-11T08:23:57;5.90;99.90
1129;DHT22;553;51.038;7.216;2023-02-11T08:26:27;5.90;99.90
1129;DHT22;553;51.038;7.216;2023-02-11T08:28:55;6.00;99.90
1129;DHT22;553;51.038;7.216;2023-02-11T08:31:28;6.00;99.90
1129;DHT22;553;51.038;7.216;2023-02-11T08:33:55;6.00;99.90
1129;DHT22;553;51.038;7.216;2023-02-11T08:36:28;6.00;99.90
1129;DHT22;553;51.038;7.216;2023-02-11T08:38:57;6.00;99.90
1129;DHT22;553;51.038;7.216;2023-02-11T08:41:44;6.00;99.90
1129;DHT22;553;51.038;7.216;2023-02-11T08:44:12;6.10;99.90
1129;DHT22;553;51.038;7.216;2023-02-11T08:46:38;6.10;99.90
1129;DHT22;553;51.038;7.216;2023-02-11T08:49:05;6.10;99.90
1129;DHT22;553;51.038;7.216;2023-02-11T08:51:32;6.10;99.90
1129;DHT22;553;51.038;7.216;2023-02-11T08:54:00;6.10;99.90
1129;DHT22;553;51.038;7.216;2023-02-11T08:56:27;6.10;99.90
1129;DHT22;553;51.038;7.216;2023-02-11T08:58:54;6.20;99.90
1129;DHT22;553;51.038;7.216;2023-02-11T09:01:23;6.20;99.90
1129;DHT22;553;51.038;7.216;2023-02-11T09:03:51;6.20;99.90
1129;DHT22;553;51.038;7.216;2023-02-11T09:06:18;6.10;99.90
1129;DHT22;553;51.038;7.216;2023-02-11T09:08:47;6.20;99.90
1129;DHT22;553;51.038;7.216;2023-02-11T09:11:16;6.10;99.90
1129;DHT22;553;51.038;7.216;2023-02-11T09:13:43;6.20;99.90
1129;DHT22;553;51.038;7.216;2023-02-11T09:16:22;6.10;99.90
1129;DHT22;553;51.038;7.216;2023-02-11T09:18:49;6.20;99.90
1129;DHT22;553;51.038;7.216;2023-02-11T09:21:17;6.20;99.90
1129;DHT22;553;51.038;7.216;2023-02-11T09:23:45;6.20;99.90
1129;DHT22;553;51.038;7.216;2023-02-11T09:26:18;6.20;99.90
1129;DHT22;553;51.038;7.216;2023-02-11T09:28:46;6.20;99.90
1129;DHT22;553;51.038;7.216;2023-02-11T09:31:24;6.20;99.90
1129;DHT22;553;51.038;7.216;2023-02-11T09:33:54;6.20;99.90
1129;DHT22;553;51.038;7.216;2023-02-11T09:36:23;6.30;99.90
1129;DHT22;553;51.038;7.216;2023-02-11T09:38:51;6.30;99.90
1129;DHT22;553;51.038;7.216;2023-02-11T09:41:53;6.30;99.90
1129;DHT22;553;51.038;7.216;2023-02-11T09:44:27;6.30;99.90
1129;DHT22;553;51.038;7.216;2023-02-11T09:47:19;6.20;99.90
1129;DHT22;553;51.038;7.216;2023-02-11T09:50:12;6.30;99.90
1129;DHT22;553;51.038;7.216;2023-02-11T09:55:31;6.30;99.90
1129;DHT22;553;51.038;7.216;2023-02-11T09:58:03;6.30;99.90
1129;DHT22;553;51.038;7.216;2023-02-11T10:00:36;6.30;99.90
1129;DHT22;553;51.038;7.216;2023-02-11T10:03:08;6.30;99.90
1129;DHT22;553;51.038;7.216;2023-02-11T10:06:02;6.30;99.90
1129;DHT22;553;51.038;7.216;2023-02-11T10:08:40;6.30;99.90
1129;DHT22;553;51.038;7.216;2023-02-11T10:11:21;6.40;99.90
1129;DHT22;553;51.038;7.216;2023-02-11T10:22:32;6.40;99.90
1129;DHT22;553;51.038;7.216;2023-02-11T10:25:11;6.40;99.90
1129;DHT22;553;51.038;7.216;2023-02-11T10:27:42;6.50;99.90
1129;DHT22;553;51.038;7.216;2023-02-11T10:30:41;6.50;99.90
1129;DHT22;553;51.038;7.216;2023-02-11T10:33:25;6.50;99.90
1129;DHT22;553;51.038;7.216;2023-02-11T10:35:53;6.50;99.90
1129;DHT22;553;51.038;7.216;2023-02-11T10:38:20;6.40;99.90
1129;DHT22;553;51.038;7.216;2023-02-11T10:40:47;6.40;99.90
1129;DHT22;553;51.038;7.216;2023-02-11T10:43:16;6.40;99.90
1129;DHT22;553;51.038;7.216;2023-02-11T10:45:48;6.50;99.90
1129;DHT22;553;51.038;7.216;2023-02-11T10:48:34;6.50;99.90
1129;DHT22;553;51.038;7.216;2023-02-11T10:53:45;6.40;99.90
1129;DHT22;553;51.038;7.216;2023-02-11T10:56:25;6.40;99.90
1129;DHT22;553;51.038;7.216;2023-02-11T10:59:01;6.50;99.90
1129;DHT22;553;51.038;7.216;2023-02-11T11:01:44;6.50;99.90
1129;DHT22;553;51.038;7.216;2023-02-11T11:09:49;6.50;99.90
1129;DHT22;553;51.038;7.216;2023-02-11T11:12:36;6.50;99.90
1129;DHT22;553;51.038;7.216;2023-02-11T11:15:28;6.50;99.90
1129;DHT22;553;51.038;7.216;2023-02-11T11:18:16;6.50;99.90
1129;DHT22;553;51.038;7.216;2023-02-11T11:21:03;6.50;99.90
1129;DHT22;553;51.038;7.216;2023-02-11T11:23:35;6.50;99.90
1129;DHT22;553;51.038;7.216;2023-02-11T11:26:14;6.60;99.90
1129;DHT22;553;51.038;7.216;2023-02-11T11:31:36;6.70;99.90
1129;DHT22;553;51.038;7.216;2023-02-11T11:34:28;6.60;99.90
1129;DHT22;553;51.038;7.216;2023-02-11T11:36:57;6.70;99.90
1129;DHT22;553;51.038;7.216;2023-02-11T11:39:32;6.70;99.90
1129;DHT22;553;51.038;7.216;2023-02-11T11:42:02;6.60;99.90
1129;DHT22;553;51.038;7.216;2023-02-11T11:44:35;6.60;99.90
1129;DHT22;553;51.038;7.216;2023-02-11T11:47:18;6.70;99.90
1129;DHT22;553;51.038;7.216;2023-02-11T11:50:18;6.70;99.90
1129;DHT22;553;51.038;7.216;2023-02-11T11:52:59;6.70;99.90
1129;DHT22;553;51.038;7.216;2023-02-11T11:55:32;6.70;99.90
1129;DHT22;553;51.038;7.216;2023-02-11T11:58:00;6.80;99.90
1129;DHT22;553;51.038;7.216;2023-02-11T12:00:34;6.80;99.90
1129;DHT22;553;51.038;7.216;2023-02-11T12:06:43;6.90;99.90
1129;DHT22;553;51.038;7.216;2023-02-11T12:15:13;6.90;99.90
1129;DHT22;553;51.038;7.216;2023-02-11T12:25:59;6.90;99.90
1129;DHT22;553;51.038;7.216;2023-02-11T12:43:04;7.30;99.90
1129;DHT22;553;51.038;7.216;2023-02-11T12:56:52;7.00;99.90
1129;DHT22;553;51.038;7.216;2023-02-11T13:05:37;6.90;99.90
1129;DHT22;553;51.038;7.216;2023-02-11T13:08:22;7.00;99.90
1129;DHT22;553;51.038;7.216;2023-02-11T13:10:54;6.90;99.90
1129;DHT22;553;51.038;7.216;2023-02-11T13:13:34;7.00;99.90
1129;DHT22;553;51.038;7.216;2023-02-11T13:16:12;7.00;99.90
1129;DHT22;553;51.038;7.216;2023-02-11T13:19:34;7.10;99.90
1129;DHT22;553;51.038;7.216;2023-02-11T13:28:12;6.80;99.90
1129;DHT22;553;51.038;7.216;2023-02-11T13:30:31;6.80;99.90
1129;DHT22;553;51.038;7.216;2023-02-11T13:35:35;6.90;99.90
1129;DHT22;553;51.038;7.216;2023-02-11T13:43:25;6.90;99.90
1129;DHT22;553;51.038;7.216;2023-02-11T13:46:04;6.90;99.90
1129;DHT22;553;51.038;7.216;2023-02-11T13:48:37;7.00;99.90
1129;DHT22;553;51.038;7.216;2023-02-11T13:51:06;6.90;99.90
1129;DHT22;553;51.038;7.216;2023-02-11T13:53:52;7.00;99.90
1129;DHT22;553;51.038;7.216;2023-02-11T13:56:29;7.00;99.90
1129;DHT22;553;51.038;7.216;2023-02-11T13:58:59;7.00;99.90
1129;DHT22;553;51.038;7.216;2023-02-11T14:02:00;6.90;99.90
1129;DHT22;553;51.038;7.216;2023-02-11T14:11:08;7.10;99.90
1129;DHT22;553;51.038;7.216;2023-02-11T14:16:16;7.10;99.90
1129;DHT22;553;51.038;7.216;2023-02-11T14:19:03;7.10;99.90
1129;DHT22;553;51.038;7.216;2023-02-11T14:21:34;7.10;99.90
1129;DHT22;553;51.038;7.216;2023-02-11T14:37:51;7.30;99.90
1129;DHT22;553;51.038;7.216;2023-02-11T14:40:33;7.30;99.90
1129;DHT22;553;51.038;7.216;2023-02-11T14:43:17;7.30;99.90
1129;DHT22;553;51.038;7.216;2023-02-11T14:45:50;7.30;99.90
1129;DHT22;553;51.038;7.216;2023-02-11T14:48:18;7.30;99.90
1129;DHT22;553;51.038;7.216;2023-02-11T14:50:49;7.40;99.90
1129;DHT22;553;51.038;7.216;2023-02-11T14:53:21;7.30;99.90
1129;DHT22;553;51.038;7.216;2023-02-11T14:55:51;7.30;99.90
1129;DHT22;553;51.038;7.216;2023-02-11T14:58:21;7.40;99.90
1129;DHT22;553;51.038;7.216;2023-02-11T15:01:05;7.40;99.90
1129;DHT22;553;51.038;7.216;2023-02-11T15:03:48;7.50;99.90
1129;DHT22;553;51.038;7.216;2023-02-11T15:06:17;7.50;99.90
1129;DHT22;553;51.038;7.216;2023-02-11T15:08:51;7.40;99.90
1129;DHT22;553;51.038;7.216;2023-02-11T15:11:20;7.40;99.90
1129;DHT22;553;51.038;7.216;2023-02-11T15:13:48;7.30;99.90
1129;DHT22;553;51.038;7.216;2023-02-11T15:16:19;7.40;99.90
1129;DHT22;553;51.038;7.216;2023-02-11T15:18:49;7.30;99.90
1129;DHT22;553;51.038;7.216;2023-02-11T15:21:22;7.30;99.90
1129;DHT22;553;51.038;7.216;2023-02-11T15:26:32;7.30;99.90
1129;DHT22;553;51.038;7.216;2023-02-11T15:28:59;7.30;99.90
1129;DHT22;553;51.038;7.216;2023-02-11T15:31:27;7.40;99.90
1129;DHT22;553;51.038;7.216;2023-02-11T15:33:54;7.50;99.90
1129;DHT22;553;51.038;7.216;2023-02-11T15:36:23;7.50;99.90
1129;DHT22;553;51.038;7.216;2023-02-11T15:39:28;7.50;99.90
1129;DHT22;553;51.038;7.216;2023-02-11T15:42:25;7.40;99.90
1129;DHT22;553;51.038;7.216;2023-02-11T15:45:21;7.40;99.90
1129;DHT22;553;51.038;7.216;2023-02-11T15:50:34;7.60;99.90
1129;DHT22;553;51.038;7.216;2023-02-11T15:53:20;7.60;99.90
1129;DHT22;553;51.038;7.216;2023-02-11T15:55:53;7.60;99.90
1129;DHT22;553;51.038;7.216;2023-02-11T15:58:22;7.60;99.90
1129;DHT22;553;51.038;7.216;2023-02-11T16:00:51;7.70;99.90
1129;DHT22;553;51.038;7.216;2023-02-11T16:03:23;7.70;99.90
1129;DHT22;553;51.038;7.216;2023-02-11T16:05:50;7.70;99.90
1129;DHT22;553;51.038;7.216;2023-02-11T16:08:23;7.70;99.90
1129;DHT22;553;51.038;7.216;2023-02-11T16:13:25;7.70;99.90
1129;DHT22;553;51.038;7.216;2023-02-11T16:16:01;7.70;99.90
1129;DHT22;553;51.038;7.216;2023-02-11T16:18:37;7.70;99.90
1129;DHT22;553;51.038;7.216;2023-02-11T16:21:13;7.70;99.90
1129;DHT22;553;51.038;7.216;2023-02-11T16:23:47;7.80;99.90
1129;DHT22;553;51.038;7.216;2023-02-11T16:26:38;7.80;99.90
1129;DHT22;553;51.038;7.216;2023-02-11T16:29:15;7.70;99.90
1129;DHT22;553;51.038;7.216;2023-02-11T16:31:44;7.70;99.90
1129;DHT22;553;51.038;7.216;2023-02-11T16:34:20;7.70;99.90
1129;DHT22;553;51.038;7.216;2023-02-11T16:36:48;7.70;99.90
1129;DHT22;553;51.038;7.216;2023-02-11T16:39:16;7.70;99.90
1129;DHT22;553;51.038;7.216;2023-02-11T16:41:44;7.70;99.90
1129;DHT22;553;51.038;7.216;2023-02-11T16:44:10;7.70;99.90
1129;DHT22;553;51.038;7.216;2023-02-11T16:46:37;7.70;99.90
1129;DHT22;553;51.038;7.216;2023-02-11T16:49:17;7.70;99.90
1129;DHT22;553;51.038;7.216;2023-02-11T16:51:51;7.80;99.90
1129;DHT22;553;51.038;7.216;2023-02-11T16:54:19;7.80;99.90
1129;DHT22;553;51.038;7.216;2023-02-11T16:56:45;7.80;99.90
1129;DHT22;553;51.038;7.216;2023-02-11T16:59:12;7.80;99.90
1129;DHT22;553;51.038;7.216;2023-02-11T17:01:40;7.80;99.90
1129;DHT22;553;51.038;7.216;2023-02-11T17:04:26;7.70;99.90
1129;DHT22;553;51.038;7.216;2023-02-11T17:06:54;7.80;99.90
1129;DHT22;553;51.038;7.216;2023-02-11T17:09:26;7.80;99.90
1129;DHT22;553;51.038;7.216;2023-02-11T17:11:56;7.70;99.90
1129;DHT22;553;51.038;7.216;2023-02-11T17:14:23;7.70;99.90
1129;DHT22;553;51.038;7.216;2023-02-11T17:16:50;7.80;99.90
1129;DHT22;553;51.038;7.216;2023-02-11T17:19:18;7.80;99.90
1129;DHT22;553;51.038;7.216;2023-02-11T17:21:48;9.20;99.90
1129;DHT22;553;51.038;7.216;2023-02-11T17:24:15;9.00;99.90
1129;DHT22;553;51.038;7.216;2023-02-11T17:26:44;8.90;99.90
1129;DHT22;553;51.038;7.216;2023-02-11T17:29:16;8.70;99.90
1129;DHT22;553;51.038;7.216;2023-02-11T17:31:43;8.60;99.90
1129;DHT22;553;51.038;7.216;2023-02-11T17:34:11;8.40;99.90
1129;DHT22;553;51.038;7.216;2023-02-11T17:36:38;8.30;99.90
1129;DHT22;553;51.038;7.216;2023-02-11T17:39:07;8.20;99.90
1129;DHT22;553;51.038;7.216;2023-02-11T17:41:37;8.20;99.90
1129;DHT22;553;51.038;7.216;2023-02-11T17:44:05;8.20;99.90
1129;DHT22;553;51.038;7.216;2023-02-11T17:46:33;8.10;99.90
1129;DHT22;553;51.038;7.216;2023-02-11T17:49:01;8.10;99.90
1129;DHT22;553;51.038;7.216;2023-02-11T17:51:31;8.10;99.90
1129;DHT22;553;51.038;7.216;2023-02-11T17:54:00;8.20;99.90
1129;DHT22;553;51.038;7.216;2023-02-11T17:56:27;8.10;99.90
1129;DHT22;553;51.038;7.216;2023-02-11T17:58:56;8.10;99.90
1129;DHT22;553;51.038;7.216;2023-02-11T18:01:26;8.10;99.90
1129;DHT22;553;51.038;7.216;2023-02-11T18:03:52;8.10;99.90
1129;DHT22;553;51.038;7.216;2023-02-11T18:06:20;8.00;99.90
1129;DHT22;553;51.038;7.216;2023-02-11T18:08:47;8.00;99.90
1129;DHT22;553;51.038;7.216;2023-02-11T18:11:14;7.90;99.90
1129;DHT22;553;51.038;7.216;2023-02-11T18:13:42;7.90;99.90
1129;DHT22;553;51.038;7.216;2023-02-11T18:16:09;8.00;99.90
1129;DHT22;553;51.038;7.216;2023-02-11T18:18:42;8.10;99.90
1129;DHT22;553;51.038;7.216;2023-02-11T18:21:13;8.00;99.90
1129;DHT22;553;51.038;7.216;2023-02-11T18:23:41;7.90;99.90
1129;DHT22;553;51.038;7.216;2023-02-11T18:26:09;7.90;99.90
1129;DHT22;553;51.038;7.216;2023-02-11T18:28:37;7.90;99.90
1129;DHT22;553;51.038;7.216;2023-02-11T18:31:05;7.90;99.90
1129;DHT22;553;51.038;7.216;2023-02-11T18:33:33;7.90;99.90
1129;DHT22;553;51.038;7.216;2023-02-11T18:36:07;7.80;99.90
1129;DHT22;553;51.038;7.216;2023-02-11T18:38:34;7.80;99.90
1129;DHT22;553;51.038;7.216;2023-02-11T18:41:02;7.70;99.90
1129;DHT22;553;51.038;7.216;2023-02-11T18:43:29;7.70;99.90
1129;DHT22;553;51.038;7.216;2023-02-11T18:45:57;7.70;99.90
1129;DHT22;553;51.038;7.216;2023-02-11T18:48:24;7.70;99.90
1129;DHT22;553;51.038;7.216;2023-02-11T18:50:54;7.70;99.90
1129;DHT22;553;51.038;7.216;2023-02-11T18:53:21;7.80;99.90
1129;DHT22;553;51.038;7.216;2023-02-11T18:55:48;7.80;99.90
1129;DHT22;553;51.038;7.216;2023-02-11T18:58:16;7.80;99.90
1129;DHT22;553;51.038;7.216;2023-02-11T19:00:45;7.80;99.90
1129;DHT22;553;51.038;7.216;2023-02-11T19:03:12;7.90;99.90
1129;DHT22;553;51.038;7.216;2023-02-11T19:05:41;7.90;99.90
1129;DHT22;553;51.038;7.216;2023-02-11T19:08:08;7.90;99.90
1129;DHT22;553;51.038;7.216;2023-02-11T19:10:47;7.90;99.90
1129;DHT22;553;51.038;7.216;2023-02-11T19:13:14;8.00;99.90
1129;DHT22;553;51.038;7.216;2023-02-11T19:15:45;8.00;99.90
1129;DHT22;553;51.038;7.216;2023-02-11T19:18:14;8.00;99.90
1129;DHT22;553;51.038;7.216;2023-02-11T19:20:42;8.00;99.90
1129;DHT22;553;51.038;7.216;2023-02-11T19:23:09;7.90;99.90